createdAt,value
2019-06-07T00:01:28.051Z,74.43
2019-06-07T00:03:55.148Z,74.21
2019-06-07T00:06:25.410Z,74.48
2019-06-07T00:08:51.231Z,74.52
2019-06-07T00:11:20.524Z,74.66
2019-06-07T00:13:47.281Z,74.83
2019-06-07T00:16:19.086Z,75.72
2019-06-07T00:18:43.332Z,75.45
2019-06-07T00:21:11.785Z,75.92
2019-06-07T00:23:39.002Z,76.00
2019-06-07T00:26:06.111Z,75.72
2019-06-07T00:28:33.208Z,76.35
2019-06-07T00:31:00.300Z,76.35
2019-06-07T00:33:27.440Z,76.34
2019-06-07T00:35:54.517Z,76.90
2019-06-07T00:38:22.056Z,76.18
2019-06-07T00:40:49.177Z,76.18
2019-06-07T00:43:19.165Z,76.46
2019-06-07T00:45:45.266Z,76.83
2019-06-07T00:48:19.543Z,77.24
2019-06-07T00:50:41.336Z,77.16
2019-06-07T00:53:16.812Z,77.16
2019-06-07T00:55:37.394Z,77.37
2019-06-07T00:58:04.596Z,77.57
2019-06-07T01:00:31.660Z,77.57
2019-06-07T01:02:58.770Z,77.51
2019-06-07T01:05:31.051Z,77.34
2019-06-07T01:07:54.856Z,77.34
2019-06-07T01:10:51.536Z,77.82
2019-06-07T01:12:53.921Z,77.82
2019-06-07T01:15:27.575Z,77.80
2019-06-07T01:18:32.892Z,77.80
2019-06-07T01:20:22.790Z,77.90
2019-06-07T01:22:49.647Z,77.96
2019-06-07T01:25:18.321Z,78.15
2019-06-07T01:27:45.713Z,78.09
2019-06-07T01:30:13.405Z,78.48
2019-06-07T01:32:40.488Z,78.48
2019-06-07T01:35:07.949Z,78.44
2019-06-07T01:37:35.016Z,78.68
2019-06-07T01:40:02.207Z,79.04
2019-06-07T01:42:30.978Z,79.04
2019-06-07T01:44:58.255Z,78.83
2019-06-07T01:47:28.756Z,78.76
2019-06-07T01:49:54.316Z,78.80
2019-06-07T01:52:23.492Z,78.80
2019-06-07T01:54:57.803Z,78.54
2019-06-07T01:57:36.710Z,78.70
2019-06-07T01:59:48.321Z,79.07
2019-06-07T02:02:15.372Z,79.13
2019-06-07T02:04:42.514Z,78.89
2019-06-07T02:07:09.606Z,78.90
2019-06-07T02:09:36.669Z,79.14
2019-06-07T02:12:24.765Z,79.36
2019-06-07T02:14:39.114Z,79.64
2019-06-07T02:17:06.168Z,79.97
2019-06-07T02:19:33.661Z,80.07
2019-06-07T02:22:00.930Z,80.03
2019-06-07T02:24:29.642Z,80.44
2019-06-07T02:26:57.008Z,80.49
2019-06-07T02:29:25.443Z,80.16
2019-06-07T02:31:53.032Z,81.19
2019-06-07T02:34:21.518Z,84.91
2019-06-07T02:36:48.647Z,84.50
2019-06-07T02:39:15.971Z,81.71
2019-06-07T02:41:43.318Z,80.16
2019-06-07T02:44:10.464Z,79.70
2019-06-07T02:46:46.768Z,78.65
2019-06-07T02:49:06.514Z,77.61
2019-06-07T02:51:41.131Z,75.05
2019-06-07T02:54:02.553Z,74.87
2019-06-07T02:56:52.476Z,74.95
2019-06-07T02:58:58.597Z,75.56
2019-06-07T03:01:28.422Z,75.05
2019-06-07T03:03:54.838Z,74.87
2019-06-07T03:06:22.083Z,72.92
2019-06-07T03:08:49.298Z,71.98
2019-06-07T03:11:16.363Z,71.96
2019-06-07T03:13:46.228Z,72.44
2019-06-07T03:16:17.596Z,73.23
2019-06-07T03:18:52.786Z,73.83
2019-06-07T03:21:21.330Z,74.77
2019-06-07T03:23:51.376Z,75.10
2019-06-07T03:26:20.250Z,75.74
2019-06-07T03:28:47.284Z,75.74
2019-06-07T03:31:14.334Z,75.77
2019-06-07T03:33:44.625Z,76.53
2019-06-07T03:36:23.204Z,76.99
2019-06-07T03:38:39.831Z,77.40
2019-06-07T03:41:07.229Z,77.71
2019-06-07T03:43:36.656Z,78.04
2019-06-07T03:46:03.227Z,78.28
2019-06-07T03:48:32.280Z,78.52
2019-06-07T03:51:04.465Z,78.83
2019-06-07T03:53:30.490Z,79.14
2019-06-07T03:55:57.178Z,80.13
2019-06-07T03:58:36.646Z,81.35
2019-06-07T04:00:53.224Z,81.32
2019-06-07T04:03:33.570Z,81.60
2019-06-07T04:05:49.690Z,82.04
2019-06-07T04:08:16.906Z,82.20
2019-06-07T04:10:58.461Z,82.27
2019-06-07T04:13:12.903Z,81.94
2019-06-07T04:15:41.402Z,81.73
2019-06-07T04:18:08.653Z,81.30
2019-06-07T04:20:38.114Z,81.20
2019-06-07T04:23:25.051Z,81.04
2019-06-07T04:25:36.802Z,81.28
2019-06-07T04:28:02.664Z,80.86
2019-06-07T04:30:41.995Z,80.81
2019-06-07T04:33:09.824Z,80.91
2019-06-07T04:35:58.450Z,81.12
2019-06-07T04:38:25.925Z,81.12
2019-06-07T04:40:53.405Z,81.00
2019-06-07T04:43:20.498Z,80.92
2019-06-07T04:45:51.070Z,80.89
2019-06-07T04:48:19.895Z,80.67
2019-06-07T04:51:08.276Z,80.62
2019-06-07T04:53:38.662Z,80.27
2019-06-07T04:56:26.425Z,79.22
2019-06-07T04:58:53.504Z,79.22
2019-06-07T05:01:27.353Z,78.90
2019-06-07T05:03:55.946Z,78.70
2019-06-07T05:06:36.300Z,78.70
2019-06-07T05:09:09.836Z,77.84
2019-06-07T05:11:39.296Z,77.84
2019-06-07T05:14:12.132Z,77.27
2019-06-07T05:16:43.690Z,80.30
2019-06-07T05:19:14.651Z,79.64
2019-06-07T05:22:01.562Z,77.88
2019-06-07T05:24:17.014Z,74.80
2019-06-07T05:26:44.145Z,73.45
2019-06-07T05:29:11.151Z,74.67
2019-06-07T05:31:41.824Z,73.62
2019-06-07T05:34:13.498Z,71.31
2019-06-07T05:36:44.289Z,72.08
2019-06-07T05:39:15.829Z,71.72
2019-06-07T05:41:44.418Z,70.15
2019-06-07T05:44:17.913Z,68.90
2019-06-07T05:46:47.145Z,68.81
2019-06-07T05:49:23.882Z,69.50
2019-06-07T05:51:50.935Z,69.73
2019-06-07T05:54:18.003Z,68.92
2019-06-07T05:56:45.505Z,68.73
2019-06-07T05:59:20.165Z,68.50
2019-06-07T06:01:58.914Z,69.19
2019-06-07T06:04:22.219Z,68.69
2019-06-07T06:06:49.269Z,68.35
2019-06-07T06:09:16.339Z,68.26
2019-06-07T06:11:58.624Z,67.75
2019-06-07T06:14:14.631Z,68.42
2019-06-07T06:16:44.406Z,67.35
2019-06-07T06:19:10.687Z,67.49
2019-06-07T06:21:38.529Z,68.14
2019-06-07T06:24:05.681Z,68.18
2019-06-07T06:26:32.804Z,69.25
2019-06-07T06:28:59.829Z,69.14
2019-06-07T06:31:26.905Z,69.56
2019-06-07T06:33:53.967Z,68.90
2019-06-07T06:36:21.755Z,69.25
2019-06-07T06:38:49.842Z,69.67
2019-06-07T06:41:18.072Z,69.79
2019-06-07T06:43:49.391Z,70.57
2019-06-07T06:46:14.126Z,70.61
2019-06-07T06:48:47.354Z,70.40
2019-06-07T06:51:10.133Z,70.88
2019-06-07T06:53:37.195Z,70.78
2019-06-07T06:56:04.239Z,70.74
2019-06-07T06:59:18.867Z,70.34
2019-06-07T07:01:06.513Z,70.40
2019-06-07T07:03:57.343Z,70.74
2019-06-07T07:06:24.290Z,70.55
2019-06-07T07:08:27.263Z,70.39
2019-06-07T07:10:54.983Z,69.76
2019-06-07T07:13:22.443Z,70.12
2019-06-07T07:15:55.120Z,69.81
2019-06-07T07:18:18.602Z,69.91
2019-06-07T07:20:47.711Z,69.87
2019-06-07T07:23:14.733Z,70.02
2019-06-07T07:25:43.507Z,69.59
2019-06-07T07:28:10.777Z,69.56
2019-06-07T07:30:47.300Z,68.74
2019-06-07T07:33:15.444Z,69.47
2019-06-07T07:36:07.841Z,69.10
2019-06-07T07:38:11.657Z,69.39
2019-06-07T07:43:07.837Z,68.30
2019-06-07T07:45:34.949Z,68.67
2019-06-07T07:50:31.085Z,67.49
2019-06-07T07:53:00.659Z,67.78
2019-06-07T07:55:27.198Z,66.93
2019-06-07T07:58:01.103Z,66.90
2019-06-07T08:01:11.406Z,66.73
2019-06-07T08:03:38.565Z,67.22
2019-06-07T08:06:05.690Z,67.10
2019-06-07T08:08:32.777Z,66.95
2019-06-07T08:11:02.119Z,66.34
2019-06-07T08:13:28.839Z,66.20
2019-06-07T08:15:59.367Z,65.83
2019-06-07T08:18:24.924Z,66.20
2019-06-07T08:21:08.757Z,65.79
2019-06-07T08:23:21.010Z,65.66
2019-06-07T08:25:49.136Z,64.80
2019-06-07T08:28:16.357Z,64.39
2019-06-07T08:30:50.510Z,64.29
2019-06-07T08:33:26.096Z,63.96
2019-06-07T08:36:06.161Z,64.37
2019-06-07T08:38:34.147Z,64.11
2019-06-07T08:40:39.385Z,64.49
2019-06-07T08:43:20.865Z,63.68
2019-06-07T08:45:35.507Z,63.69
2019-06-07T08:48:12.971Z,63.73
2019-06-07T08:50:31.718Z,62.79
2019-06-07T08:53:05.111Z,63.28
2019-06-07T08:55:27.811Z,63.04
2019-06-07T08:58:02.246Z,63.64
2019-06-07T09:02:54.977Z,62.30
2019-06-07T09:05:21.910Z,61.84
2019-06-07T09:08:07.223Z,61.29
2019-06-07T09:10:18.022Z,61.28
2019-06-07T09:12:45.107Z,61.46
2019-06-07T09:15:21.408Z,60.79
2019-06-07T09:18:29.565Z,60.79
2019-06-07T09:20:35.101Z,60.70
2019-06-07T09:22:41.594Z,60.53
2019-06-07T09:25:21.173Z,60.97
2019-06-07T09:27:42.080Z,60.67
2019-06-07T09:30:16.568Z,59.55
2019-06-07T09:32:38.520Z,59.67
2019-06-07T09:35:12.617Z,60.10
2019-06-07T09:40:19.655Z,59.52
2019-06-07T09:42:33.012Z,59.13
2019-06-07T09:45:01.188Z,58.48
2019-06-07T09:47:32.544Z,56.99
2019-06-07T09:50:02.364Z,57.30
2019-06-07T09:52:27.069Z,56.85
2019-06-07T09:55:23.169Z,56.11
2019-06-07T09:57:29.153Z,55.67
2019-06-07T09:59:56.319Z,55.54
2019-06-07T10:02:31.491Z,54.35
2019-06-07T10:05:01.526Z,54.06
2019-06-07T10:07:33.979Z,52.14
2019-06-07T10:12:36.106Z,51.89
2019-06-07T10:15:15.750Z,50.70
2019-06-07T10:17:42.894Z,50.10
2019-06-07T10:20:10.140Z,49.98
2019-06-07T10:22:37.352Z,49.47
2019-06-07T10:25:06.319Z,49.00
2019-06-07T10:30:41.692Z,46.76
2019-06-07T10:33:08.756Z,46.59
2019-06-07T10:35:35.828Z,45.65
2019-06-07T10:38:02.941Z,45.06
2019-06-07T10:40:30.004Z,44.54
2019-06-07T10:42:57.082Z,44.34
2019-06-07T10:45:24.135Z,44.44
2019-06-07T10:47:51.216Z,44.03
2019-06-07T10:50:18.292Z,43.79
2019-06-07T10:52:45.378Z,43.32
2019-06-07T10:55:31.921Z,43.50
2019-06-07T10:57:59.012Z,43.35
2019-06-07T11:00:26.232Z,41.91
2019-06-07T11:02:55.273Z,41.16
2019-06-07T11:05:32.142Z,41.40
2019-06-07T11:08:00.713Z,40.13
2019-06-07T11:10:34.350Z,39.54
2019-06-07T11:13:01.429Z,39.90
2019-06-07T11:15:28.544Z,39.15
2019-06-07T11:17:55.715Z,38.98
2019-06-07T11:20:22.840Z,39.66
2019-06-07T11:22:49.913Z,38.92
2019-06-07T11:25:16.938Z,37.85
2019-06-07T11:27:44.050Z,37.85
2019-06-07T11:30:12.554Z,38.10
2019-06-07T11:32:39.782Z,36.50
2019-06-07T11:35:08.772Z,35.85
2019-06-07T11:37:35.859Z,38.15
2019-06-07T11:40:03.281Z,36.40
2019-06-07T11:42:30.350Z,36.30
2019-06-07T11:44:57.516Z,35.72
2019-06-07T11:47:24.605Z,36.09
2019-06-07T11:49:51.679Z,35.56
2019-06-07T11:52:18.747Z,36.30
2019-06-07T11:54:48.142Z,35.22
2019-06-07T11:57:15.191Z,35.90
2019-06-07T11:59:42.310Z,34.79
2019-06-07T12:02:09.386Z,35.28
2019-06-07T12:04:36.457Z,34.06
2019-06-07T12:07:03.623Z,35.07
2019-06-07T12:09:30.774Z,34.06
2019-06-07T12:11:57.855Z,34.06
2019-06-07T12:14:24.914Z,32.77
2019-06-07T12:16:51.992Z,32.34
2019-06-07T12:19:19.807Z,33.01
2019-06-07T12:21:46.965Z,32.34
2019-06-07T12:24:14.247Z,32.97
2019-06-07T12:26:41.401Z,32.57
2019-06-07T12:29:08.453Z,32.00
2019-06-07T12:31:35.548Z,31.92
2019-06-07T12:34:02.663Z,31.75
2019-06-07T12:36:29.763Z,32.59
2019-06-07T12:38:56.843Z,31.65
2019-06-07T12:41:24.209Z,31.76
2019-06-07T12:43:51.272Z,31.04
2019-06-07T12:46:23.067Z,31.66
2019-06-07T12:48:47.350Z,30.77
2019-06-07T12:51:15.190Z,30.57
2019-06-07T12:53:42.268Z,30.89
2019-06-07T12:56:09.334Z,30.21
2019-06-07T12:58:39.475Z,29.57
2019-06-07T13:01:05.392Z,29.35
2019-06-07T13:03:32.505Z,29.71
2019-06-07T13:06:00.362Z,29.35
2019-06-07T13:08:28.191Z,29.02
2019-06-07T13:10:55.513Z,28.58
2019-06-07T13:13:23.129Z,28.83
2019-06-07T13:15:58.184Z,29.39
2019-06-07T13:18:25.368Z,28.88
2019-06-07T13:20:55.340Z,28.53
2019-06-07T13:23:31.334Z,29.20
2019-06-07T13:25:58.393Z,29.04
2019-06-07T13:28:25.460Z,28.14
2019-06-07T13:30:52.577Z,27.37
2019-06-07T13:33:21.502Z,28.37
2019-06-07T13:35:55.049Z,29.14
2019-06-07T13:38:41.685Z,28.99
2019-06-07T13:41:08.854Z,27.91
2019-06-07T13:43:35.924Z,26.89
2019-06-07T13:46:03.016Z,26.94
2019-06-07T13:48:30.097Z,26.66
2019-06-07T13:50:57.195Z,27.82
2019-06-07T13:53:25.075Z,28.59
2019-06-07T13:55:59.662Z,28.15
2019-06-07T13:58:26.748Z,27.68
2019-06-07T14:00:53.950Z,27.95
2019-06-07T14:03:24.260Z,27.67
2019-06-07T14:05:50.035Z,27.05
2019-06-07T14:08:17.075Z,27.34
2019-06-07T14:10:44.156Z,27.32
2019-06-07T14:13:11.252Z,28.17
2019-06-07T14:15:38.401Z,28.03
2019-06-07T14:18:05.559Z,26.50
2019-06-07T14:20:34.586Z,26.16
2019-06-07T14:23:01.639Z,26.54
2019-06-07T14:25:29.352Z,27.52
2019-06-07T14:27:56.542Z,26.99
2019-06-07T14:32:51.320Z,26.85
2019-06-07T14:35:18.506Z,27.91
2019-06-07T14:37:45.601Z,26.00
2019-06-07T14:40:13.813Z,26.62
2019-06-07T14:42:40.965Z,27.04
2019-06-07T14:45:08.563Z,26.95
2019-06-07T14:47:35.635Z,27.99
2019-06-07T14:50:04.146Z,28.30
2019-06-07T14:52:33.295Z,27.69
2019-06-07T14:55:00.247Z,27.67
2019-06-07T14:57:27.341Z,26.84
2019-06-07T14:59:54.490Z,27.79
2019-06-07T15:02:21.620Z,28.84
2019-06-07T15:04:48.722Z,28.60
2019-06-07T15:07:15.829Z,28.90
2019-06-07T15:09:42.970Z,28.54
2019-06-07T15:12:24.118Z,29.34
2019-06-07T15:14:39.138Z,29.61
2019-06-07T15:17:06.226Z,30.34
2019-06-07T15:19:34.558Z,29.93
2019-06-07T15:22:02.334Z,29.21
2019-06-07T15:24:33.667Z,29.10
2019-06-07T15:26:58.401Z,28.20
2019-06-07T15:29:25.497Z,28.46
2019-06-07T15:31:52.600Z,28.97
2019-06-07T15:34:19.684Z,28.83
2019-06-07T15:36:46.802Z,28.90
2019-06-07T15:39:13.913Z,29.63
2019-06-07T15:41:40.996Z,29.76
2019-06-07T15:44:08.082Z,29.43
2019-06-07T15:46:35.656Z,30.43
2019-06-07T15:49:02.868Z,30.88
2019-06-07T15:51:30.654Z,30.84
2019-06-07T15:53:57.784Z,31.33
2019-06-07T15:56:24.871Z,31.96
2019-06-07T15:58:51.948Z,31.59
2019-06-07T16:01:19.075Z,31.70
2019-06-07T16:03:46.167Z,31.52
2019-06-07T16:06:13.278Z,31.95
2019-06-07T16:08:40.548Z,32.25
2019-06-07T16:11:07.702Z,31.84
2019-06-07T16:13:34.824Z,32.38
2019-06-07T16:16:01.943Z,32.28
2019-06-07T16:18:29.007Z,32.32
2019-06-07T16:20:56.111Z,33.47
2019-06-07T16:23:23.184Z,33.31
2019-06-07T16:25:50.265Z,33.41
2019-06-07T16:28:17.339Z,34.49
2019-06-07T16:30:44.817Z,34.39
2019-06-07T16:33:11.996Z,34.11
2019-06-07T16:35:39.142Z,34.36
2019-06-07T16:38:06.198Z,33.52
2019-06-07T16:40:33.413Z,34.38
2019-06-07T16:43:16.419Z,34.15
2019-06-07T16:45:29.488Z,33.62
2019-06-07T16:47:56.573Z,33.38
2019-06-07T16:50:23.713Z,33.99
2019-06-07T16:52:50.839Z,34.62
2019-06-07T16:55:18.040Z,34.62
2019-06-07T16:57:45.317Z,34.93
2019-06-07T17:00:13.965Z,34.89
2019-06-07T17:02:42.271Z,35.19
2019-06-07T17:05:09.623Z,35.25
2019-06-07T17:07:38.163Z,36.42
2019-06-07T17:10:08.133Z,36.23
2019-06-07T17:12:35.406Z,36.38
2019-06-07T17:15:02.766Z,37.08
2019-06-07T17:17:30.331Z,37.21
2019-06-07T17:19:57.428Z,37.38
2019-06-07T17:22:24.515Z,38.21
2019-06-07T17:24:51.621Z,38.85
2019-06-07T17:27:18.705Z,39.48
2019-06-07T17:29:45.872Z,39.91
2019-06-07T17:32:15.959Z,40.63
2019-06-07T17:34:42.057Z,40.88
2019-06-07T17:37:09.157Z,41.30
2019-06-07T17:39:36.256Z,41.65
2019-06-07T17:42:03.463Z,42.33
2019-06-07T17:44:30.596Z,42.46
2019-06-07T17:46:57.691Z,43.48
2019-06-07T17:49:24.783Z,43.01
2019-06-07T17:51:52.326Z,43.54
2019-06-07T17:54:27.377Z,44.19
2019-06-07T17:56:55.987Z,44.67
2019-06-07T17:59:23.259Z,44.92
2019-06-07T18:02:10.169Z,44.67
2019-06-07T18:04:19.370Z,44.50
2019-06-07T18:06:47.328Z,44.79
2019-06-07T18:12:39.644Z,46.19
2019-06-07T18:15:52.920Z,46.98
2019-06-07T18:18:42.454Z,47.11
2019-06-07T18:21:09.539Z,47.90
2019-06-07T18:23:36.613Z,48.62
2019-06-07T18:26:03.852Z,49.21
2019-06-07T18:28:30.947Z,49.42
2019-06-07T18:30:58.959Z,49.47
2019-06-07T18:33:36.844Z,49.87
2019-06-07T18:36:04.327Z,50.64
2019-06-07T18:38:31.415Z,51.18
2019-06-07T18:40:59.575Z,51.67
2019-06-07T18:43:26.779Z,51.62
2019-06-07T18:45:53.842Z,52.19
2019-06-07T18:48:20.906Z,52.82
2019-06-07T18:50:48.635Z,53.26
2019-06-07T18:53:35.878Z,53.54
2019-06-07T18:56:03.082Z,53.82
2019-06-07T18:58:30.141Z,53.99
2019-06-07T19:00:57.604Z,54.54
2019-06-07T19:03:24.748Z,54.71
2019-06-07T19:05:52.176Z,54.74
2019-06-07T19:08:19.348Z,55.06
2019-06-07T19:10:46.446Z,55.61
2019-06-07T19:13:13.564Z,55.94
2019-06-07T19:15:43.289Z,56.56
2019-06-07T19:18:29.034Z,56.81
2019-06-07T19:20:56.497Z,57.20
2019-06-07T19:23:51.757Z,57.27
2019-06-07T19:26:58.998Z,57.71
2019-06-07T19:29:26.084Z,58.28
2019-06-07T19:31:53.402Z,58.83
2019-06-07T19:34:20.456Z,59.11
2019-06-07T19:36:48.990Z,59.06
2019-06-07T19:39:36.138Z,59.29
2019-06-07T19:42:44.072Z,59.84
2019-06-07T19:48:54.530Z,60.43
2019-06-07T19:54:25.345Z,61.07
2019-06-07T19:56:53.410Z,61.79
2019-06-07T19:59:41.139Z,62.18
2019-06-07T20:02:08.218Z,62.69
2019-06-07T20:04:35.295Z,62.99
2019-06-07T20:07:03.949Z,63.59
2019-06-07T20:09:31.652Z,63.95
2019-06-07T20:11:58.713Z,64.35
2019-06-07T20:14:25.808Z,64.31
2019-06-07T20:16:53.332Z,64.39
2019-06-07T20:19:20.436Z,64.80
2019-06-07T20:21:47.496Z,65.16
2019-06-07T20:24:26.830Z,65.59
2019-06-07T20:26:43.557Z,65.73
2019-06-07T20:29:25.392Z,65.98
2019-06-07T20:31:39.604Z,66.28
2019-06-07T20:34:06.685Z,66.52
2019-06-07T20:36:33.780Z,66.63
2019-06-07T20:39:02.159Z,66.74
2019-06-07T20:41:29.245Z,67.04
2019-06-07T20:43:57.553Z,67.48
2019-06-07T20:46:47.299Z,67.93
2019-06-07T20:49:14.376Z,68.10
2019-06-07T20:51:41.440Z,68.22
2019-06-07T20:54:09.100Z,68.33
2019-06-07T20:56:36.310Z,68.70
2019-06-07T20:59:04.771Z,69.11
2019-06-07T21:01:31.861Z,69.34
2019-06-07T21:03:59.033Z,69.55
2019-06-07T21:06:26.098Z,69.77
2019-06-07T21:08:53.179Z,69.90
2019-06-07T21:11:20.266Z,69.85
2019-06-07T21:13:47.358Z,69.77
2019-06-07T21:16:14.427Z,70.11
2019-06-07T21:18:41.494Z,70.17
2019-06-07T21:21:08.664Z,70.71
2019-06-07T21:23:35.768Z,70.87
2019-06-07T21:29:07.068Z,70.97
2019-06-07T21:31:57.674Z,71.08
2019-06-07T21:34:24.801Z,71.66
2019-06-07T21:36:51.867Z,71.84
2019-06-07T21:39:18.914Z,69.87
2019-06-07T21:41:46.002Z,67.32
2019-06-07T21:44:13.124Z,65.93
2019-06-07T21:46:40.184Z,64.85
2019-06-07T21:49:08.479Z,63.28
2019-06-07T21:51:35.576Z,62.05
2019-06-07T21:54:06.288Z,61.12
2019-06-07T21:56:31.646Z,59.52
2019-06-07T21:58:58.714Z,58.26
2019-06-07T22:01:27.215Z,56.43
2019-06-07T22:03:54.323Z,54.78
2019-06-07T22:06:21.380Z,53.63
2019-06-07T22:08:48.480Z,52.50
2019-06-07T22:11:15.553Z,51.79
2019-06-07T22:13:42.609Z,51.70
2019-06-07T22:16:24.528Z,51.65
2019-06-07T22:18:38.662Z,51.88
2019-06-07T22:21:06.391Z,52.29
2019-06-07T22:23:53.223Z,53.40
2019-06-07T22:26:20.275Z,54.78
2019-06-07T22:28:47.356Z,56.84
2019-06-07T22:31:14.949Z,58.17
2019-06-07T22:33:42.210Z,59.01
2019-06-07T22:36:09.266Z,60.02
2019-06-07T22:38:36.347Z,60.70
2019-06-07T22:41:03.427Z,61.01
2019-06-07T22:43:30.535Z,61.45
2019-06-07T22:45:57.602Z,61.10
2019-06-07T22:48:24.699Z,61.83
2019-06-07T22:50:51.755Z,61.18
2019-06-07T22:53:18.861Z,59.84
2019-06-07T22:55:50.158Z,60.03
2019-06-07T22:58:18.918Z,59.98
2019-06-07T23:00:46.074Z,58.43
2019-06-07T23:03:14.892Z,57.85
2019-06-07T23:05:42.149Z,57.34
2019-06-07T23:08:09.193Z,57.08
2019-06-07T23:10:36.234Z,56.88
2019-06-07T23:13:03.558Z,56.76
2019-06-07T23:15:30.604Z,56.87
2019-06-07T23:17:57.650Z,56.47
2019-06-07T23:20:24.694Z,55.95
2019-06-07T23:22:51.837Z,55.39
2019-06-07T23:25:22.935Z,55.66
2019-06-07T23:28:14.358Z,55.37
2019-06-07T23:31:01.264Z,55.57
2019-06-07T23:33:28.361Z,55.83
2019-06-07T23:35:55.437Z,56.28
2019-06-07T23:38:22.488Z,56.41
2019-06-07T23:40:49.544Z,56.38
2019-06-07T23:43:17.564Z,57.13
2019-06-07T23:45:44.699Z,57.23
2019-06-07T23:48:11.753Z,57.14
2019-06-07T23:50:38.862Z,57.54
2019-06-07T23:53:05.930Z,57.77
2019-06-07T23:55:33.003Z,57.99
2019-06-07T23:58:00.104Z,58.21
